Time;durP1;ratioP1;P1;durP2;ratioP2;P2;SDS_P1;SDS_P2;PMS_P1;PMS_P2;Temp;Humidity;BMP_temperature;BMP_pressure;BME280_temperature;BME280_humidity;BME280_pressure;Samples;Min_cycle;Max_cycle;Signal;HPM_P1;HPM_P2
2021/10/04 00:00:03;;;;;;;4.10;1.20;;;;;;;;;;5009388;28;20200;-78
2021/10/04 00:02:31;;;;;;;1.27;1.00;;;;;;;;;;5013971;28;20256;-80
2021/10/04 00:04:58;;;;;;;1.30;1.00;;;;;;;;;;5008330;28;20197;-80
2021/10/04 00:07:25;;;;;;;2.65;1.20;;;;;;;;;;5027196;28;20208;-80
2021/10/04 00:09:52;;;;;;;1.45;1.02;;;;;;;;;;5016190;28;20709;-80
2021/10/04 00:12:19;;;;;;;4.43;1.10;;;;;;;;;;5012704;28;20399;-83
2021/10/04 00:14:46;;;;;;;1.20;0.90;;;;;;;;;;5014098;28;20227;-80
2021/10/04 00:17:13;;;;;;;1.83;1.20;;;;;;;;;;5014868;28;20204;-81
2021/10/04 00:19:42;;;;;;;1.45;0.90;;;;;;;;;;5013500;28;20197;-81
2021/10/04 00:22:09;;;;;;;1.65;1.10;;;;;;;;;;5014070;28;20208;-81
2021/10/04 00:24:36;;;;;;;1.10;1.00;;;;;;;;;;5014878;28;20259;-81
2021/10/04 00:27:03;;;;;;;1.88;1.02;;;;;;;;;;5008893;28;20255;-81
2021/10/04 00:29:30;;;;;;;1.30;0.90;;;;;;;;;;5013469;28;20197;-81
2021/10/04 00:31:57;;;;;;;1.10;0.90;;;;;;;;;;5008825;28;20198;-80
2021/10/04 00:34:25;;;;;;;1.20;0.90;;;;;;;;;;5013949;28;20193;-81
2021/10/04 00:36:53;;;;;;;3.35;1.00;;;;;;;;;;5014787;28;20208;-81
2021/10/04 00:39:20;;;;;;;1.75;1.10;;;;;;;;;;5013668;28;20201;-80
2021/10/04 00:41:47;;;;;;;1.30;0.95;;;;;;;;;;5009907;28;20201;-81
2021/10/04 00:44:14;;;;;;;2.00;1.00;;;;;;;;;;5012398;28;20620;-81
2021/10/04 00:46:41;;;;;;;1.20;1.00;;;;;;;;;;5026377;28;20247;-81
2021/10/04 00:49:08;;;;;;;2.42;1.00;;;;;;;;;;5025207;28;20201;-81
2021/10/04 00:51:36;;;;;;;1.55;1.17;;;;;;;;;;5009629;28;20221;-81
2021/10/04 00:54:05;;;;;;;2.67;1.38;;;;;;;;;;5012673;28;20287;-80
2021/10/04 00:56:32;;;;;;;1.00;0.82;;;;;;;;;;5014966;28;21138;-80
2021/10/04 00:58:59;;;;;;;1.35;0.90;;;;;;;;;;5014365;28;20228;-79
2021/10/04 01:01:28;;;;;;;1.00;0.82;;;;;;;;;;5013404;28;20251;-80
2021/10/04 01:03:55;;;;;;;1.55;1.10;;;;;;;;;;5009595;28;20197;-80
2021/10/04 01:06:23;;;;;;;1.10;0.93;;;;;;;;;;5012249;28;20607;-81
2021/10/04 01:08:50;;;;;;;1.00;0.88;;;;;;;;;;5013662;28;20256;-81
2021/10/04 01:11:18;;;;;;;1.70;1.17;;;;;;;;;;5009461;28;20228;-80
2021/10/04 01:13:45;;;;;;;1.58;1.13;;;;;;;;;;5012573;28;20197;-80
2021/10/04 01:16:12;;;;;;;1.13;0.95;;;;;;;;;;5013641;28;20614;-80
2021/10/04 01:18:39;;;;;;;1.10;0.90;;;;;;;;;;5013405;28;20650;-79
2021/10/04 01:21:08;;;;;;;1.05;0.95;;;;;;;;;;5007709;28;20201;-80
2021/10/04 01:23:35;;;;;;;1.75;0.80;;;;;;;;;;5012176;28;20208;-79
2021/10/04 01:26:03;;;;;;;1.35;0.80;;;;;;;;;;5013315;28;20295;-79
2021/10/04 01:28:30;;;;;;;4.15;1.10;;;;;;;;;;5006465;28;20212;-79
2021/10/04 01:30:58;;;;;;;2.22;1.10;;;;;;;;;;5011433;28;20663;-79
2021/10/04 01:33:25;;;;;;;1.17;0.80;;;;;;;;;;5013136;28;20196;-81
2021/10/04 01:35:52;;;;;;;3.95;1.20;;;;;;;;;;5011841;28;20204;-81
2021/10/04 01:38:21;;;;;;;3.10;1.17;;;;;;;;;;5010465;28;20203;-82
2021/10/04 01:40:48;;;;;;;1.15;0.88;;;;;;;;;;5011614;28;20208;-83
2021/10/04 01:43:15;;;;;;;1.52;1.00;;;;;;;;;;5012305;28;20564;-82
2021/10/04 01:45:42;;;;;;;1.10;0.98;;;;;;;;;;5013396;28;20197;-82
2021/10/04 01:48:09;;;;;;;1.35;0.90;;;;;;;;;;5002262;28;20335;-81
2021/10/04 01:50:37;;;;;;;1.20;1.00;;;;;;;;;;5012291;28;20223;-80
2021/10/04 01:53:05;;;;;;;2.53;1.17;;;;;;;;;;5008775;28;20271;-80
2021/10/04 01:55:33;;;;;;;1.30;0.80;;;;;;;;;;5012307;28;20215;-79
2021/10/04 01:58:01;;;;;;;0.90;0.75;;;;;;;;;;5011922;28;20205;-80
2021/10/04 02:00:28;;;;;;;2.35;1.15;;;;;;;;;;5011073;28;20647;-81
2021/10/04 02:02:56;;;;;;;1.20;1.00;;;;;;;;;;5011330;28;20259;-81
2021/10/04 02:05:23;;;;;;;2.63;0.90;;;;;;;;;;5004373;28;20262;-81
2021/10/04 02:07:51;;;;;;;1.10;0.80;;;;;;;;;;5012326;28;20203;-80
2021/10/04 02:10:20;;;;;;;1.50;1.05;;;;;;;;;;5010187;28;20220;-80
2021/10/04 02:12:48;;;;;;;2.15;0.90;;;;;;;;;;5006127;28;20250;-80
2021/10/04 02:15:15;;;;;;;1.52;1.05;;;;;;;;;;5006173;28;20197;-80
2021/10/04 02:17:43;;;;;;;1.10;0.85;;;;;;;;;;5005609;28;20212;-79
2021/10/04 02:20:12;;;;;;;1.67;1.00;;;;;;;;;;5004249;28;20651;-81
2021/10/04 02:22:39;;;;;;;2.38;0.93;;;;;;;;;;5003729;28;20550;-81
2021/10/04 02:25:07;;;;;;;1.25;0.70;;;;;;;;;;5006047;28;20216;-81
2021/10/04 02:27:34;;;;;;;1.00;0.70;;;;;;;;;;5007932;28;20636;-81
2021/10/04 02:30:02;;;;;;;1.10;0.90;;;;;;;;;;5006277;28;20224;-80
2021/10/04 02:32:29;;;;;;;1.20;0.95;;;;;;;;;;5012401;28;20680;-80
2021/10/04 02:34:56;;;;;;;0.90;0.80;;;;;;;;;;5004299;28;20255;-80
2021/10/04 02:37:23;;;;;;;4.10;1.00;;;;;;;;;;5017937;28;20204;-79
2021/10/04 02:39:50;;;;;;;2.78;0.90;;;;;;;;;;5012316;28;20192;-81
2021/10/04 02:42:17;;;;;;;1.08;0.90;;;;;;;;;;5006197;28;20688;-80
2021/10/04 02:44:44;;;;;;;2.40;1.10;;;;;;;;;;5011444;28;20227;-80
2021/10/04 02:47:13;;;;;;;2.33;0.80;;;;;;;;;;5008749;28;20647;-80
2021/10/04 02:49:40;;;;;;;2.35;0.90;;;;;;;;;;5001508;28;20205;-80
2021/10/04 02:52:11;;;;;;;1.02;0.93;;;;;;;;;;5010659;28;20224;-79
2021/10/04 02:54:38;;;;;;;1.00;0.85;;;;;;;;;;5011565;28;20208;-78
2021/10/04 02:57:05;;;;;;;1.00;0.80;;;;;;;;;;5003388;28;20212;-78
2021/10/04 02:59:32;;;;;;;1.80;0.98;;;;;;;;;;5010404;28;20201;-78
2021/10/04 03:01:59;;;;;;;1.77;1.10;;;;;;;;;;5011357;28;20197;-77
2021/10/04 03:04:27;;;;;;;1.58;1.17;;;;;;;;;;5011094;28;20204;-77
2021/10/04 03:06:54;;;;;;;1.20;0.80;;;;;;;;;;5011519;28;20618;-78
2021/10/04 03:09:21;;;;;;;1.05;0.80;;;;;;;;;;5006980;28;20247;-79
2021/10/04 03:11:48;;;;;;;1.15;0.80;;;;;;;;;;5010299;28;20224;-80
2021/10/04 03:14:15;;;;;;;1.75;0.98;;;;;;;;;;5011203;28;20219;-80
2021/10/04 03:16:42;;;;;;;3.85;1.33;;;;;;;;;;5011107;28;20212;-80
2021/10/04 03:19:10;;;;;;;2.85;1.05;;;;;;;;;;5011133;28;20193;-80
2021/10/04 03:21:38;;;;;;;1.85;1.05;;;;;;;;;;5008992;28;20660;-80
2021/10/04 03:24:05;;;;;;;1.10;0.77;;;;;;;;;;5010707;28;20208;-79
2021/10/04 03:26:32;;;;;;;2.35;0.80;;;;;;;;;;5007643;28;20205;-79
2021/10/04 03:28:59;;;;;;;1.20;0.77;;;;;;;;;;5011794;28;20279;-79
2021/10/04 03:31:26;;;;;;;1.38;0.93;;;;;;;;;;5014967;28;20693;-79
2021/10/04 03:33:53;;;;;;;1.55;1.23;;;;;;;;;;5013336;28;20201;-80
2021/10/04 03:36:20;;;;;;;1.33;1.10;;;;;;;;;;5009048;28;20664;-80
2021/10/04 03:38:50;;;;;;;0.93;0.70;;;;;;;;;;5012283;28;20681;-79
2021/10/04 03:41:17;;;;;;;1.35;1.00;;;;;;;;;;5013421;28;20284;-80
2021/10/04 03:43:44;;;;;;;1.38;1.10;;;;;;;;;;5006441;28;20215;-79
2021/10/04 03:46:11;;;;;;;1.20;0.93;;;;;;;;;;5013601;28;20235;-79
2021/10/04 03:48:39;;;;;;;1.40;1.23;;;;;;;;;;5013640;28;20567;-80
2021/10/04 03:51:06;;;;;;;1.42;0.90;;;;;;;;;;5014161;28;20221;-79
2021/10/04 03:53:33;;;;;;;1.10;0.95;;;;;;;;;;5014563;28;20659;-79
2021/10/04 03:56:01;;;;;;;1.63;0.73;;;;;;;;;;5010992;28;20208;-79
2021/10/04 03:58:28;;;;;;;1.40;0.88;;;;;;;;;;5012663;28;20209;-80
2021/10/04 04:00:55;;;;;;;1.85;0.90;;;;;;;;;;5014303;28;20225;-79
2021/10/04 04:03:22;;;;;;;2.53;0.98;;;;;;;;;;5014152;28;20203;-79
2021/10/04 04:05:49;;;;;;;3.15;1.10;;;;;;;;;;5012569;28;20700;-77
2021/10/04 04:08:16;;;;;;;1.50;1.10;;;;;;;;;;5013047;28;20565;-78
2021/10/04 04:10:44;;;;;;;1.20;0.80;;;;;;;;;;5012522;28;20220;-78
2021/10/04 04:13:12;;;;;;;2.65;0.95;;;;;;;;;;5005098;28;20678;-78
2021/10/04 04:15:40;;;;;;;1.10;0.77;;;;;;;;;;5012797;28;20228;-80
2021/10/04 04:18:07;;;;;;;1.98;1.67;;;;;;;;;;5012395;28;20293;-80
2021/10/04 04:20:34;;;;;;;2.13;0.88;;;;;;;;;;5020783;28;20200;-80
2021/10/04 04:23:01;;;;;;;1.40;0.90;;;;;;;;;;5013345;28;20201;-79
2021/10/04 04:25:28;;;;;;;1.38;0.88;;;;;;;;;;5013573;28;20192;-80
2021/10/04 04:27:58;;;;;;;0.80;0.60;;;;;;;;;;5011703;28;20196;-81
2021/10/04 04:30:32;;;;;;;1.63;1.10;;;;;;;;;;5005604;28;20228;-79
2021/10/04 04:33:00;;;;;;;1.10;0.70;;;;;;;;;;5011394;28;20196;-78
2021/10/04 04:35:27;;;;;;;1.00;0.80;;;;;;;;;;5013393;28;20215;-79
2021/10/04 04:37:54;;;;;;;0.93;0.70;;;;;;;;;;5012708;28;20201;-79
2021/10/04 04:40:21;;;;;;;2.50;1.05;;;;;;;;;;5012888;28;20659;-79
2021/10/04 04:42:48;;;;;;;1.25;0.80;;;;;;;;;;5008448;28;20200;-80
2021/10/04 04:45:16;;;;;;;1.90;0.80;;;;;;;;;;5008522;28;20666;-78
2021/10/04 04:47:45;;;;;;;1.75;0.80;;;;;;;;;;5010244;28;20251;-78
2021/10/04 04:50:12;;;;;;;1.90;1.00;;;;;;;;;;5012552;28;20208;-79
2021/10/04 04:52:39;;;;;;;1.20;0.90;;;;;;;;;;5005207;28;20275;-79
2021/10/04 04:55:07;;;;;;;0.90;0.70;;;;;;;;;;5011041;28;20197;-79
2021/10/04 04:57:34;;;;;;;1.63;0.90;;;;;;;;;;5011624;28;20196;-79
2021/10/04 05:00:01;;;;;;;1.38;0.73;;;;;;;;;;5013495;28;20659;-78
2021/10/04 05:02:33;;;;;;;0.90;0.60;;;;;;;;;;5012836;28;20197;-79
2021/10/04 05:05:01;;;;;;;1.58;1.00;;;;;;;;;;5011757;28;20205;-78
2021/10/04 05:07:28;;;;;;;1.05;0.70;;;;;;;;;;5012550;28;20201;-79
2021/10/04 05:09:55;;;;;;;1.20;0.70;;;;;;;;;;5009256;28;20228;-79
2021/10/04 05:12:22;;;;;;;0.90;0.77;;;;;;;;;;5005414;28;20225;-79
2021/10/04 05:14:50;;;;;;;0.93;0.70;;;;;;;;;;5013312;28;20205;-79
2021/10/04 05:17:17;;;;;;;1.70;0.73;;;;;;;;;;5012102;28;20204;-80
2021/10/04 05:19:44;;;;;;;1.52;1.00;;;;;;;;;;5012869;28;20278;-79
2021/10/04 05:22:12;;;;;;;1.55;0.90;;;;;;;;;;5011344;28;20603;-79
2021/10/04 05:24:39;;;;;;;2.10;1.02;;;;;;;;;;5012795;28;20680;-79
2021/10/04 05:27:06;;;;;;;0.90;0.70;;;;;;;;;;5011802;28;20696;-78
2021/10/04 05:29:33;;;;;;;2.65;0.80;;;;;;;;;;5012261;28;20192;-79
2021/10/04 05:32:00;;;;;;;1.42;0.80;;;;;;;;;;5013130;28;20220;-78
2021/10/04 05:34:27;;;;;;;1.10;0.90;;;;;;;;;;5012216;28;20197;-78
2021/10/04 05:36:54;;;;;;;1.40;0.70;;;;;;;;;;5012233;28;20615;-78
2021/10/04 05:39:23;;;;;;;1.30;0.90;;;;;;;;;;5011209;28;20212;-78
2021/10/04 05:41:50;;;;;;;1.20;0.90;;;;;;;;;;5007310;28;20201;-79
2021/10/04 05:44:17;;;;;;;1.05;0.70;;;;;;;;;;5006865;28;20251;-78
2021/10/04 05:46:44;;;;;;;1.15;0.80;;;;;;;;;;5012601;28;20196;-77
2021/10/04 05:49:11;;;;;;;1.20;0.80;;;;;;;;;;5011211;28;20705;-78
2021/10/04 05:51:38;;;;;;;1.13;0.82;;;;;;;;;;5011048;28;20228;-77
2021/10/04 05:54:05;;;;;;;1.20;0.85;;;;;;;;;;5011077;28;20255;-79
2021/10/04 05:56:34;;;;;;;3.00;1.15;;;;;;;;;;5010680;28;20204;-80
2021/10/04 05:59:01;;;;;;;1.17;0.80;;;;;;;;;;5011558;28;20661;-79
2021/10/04 06:01:28;;;;;;;1.38;0.85;;;;;;;;;;5009773;28;20224;-80
2021/10/04 06:03:55;;;;;;;3.15;0.85;;;;;;;;;;5006891;28;20545;-80
2021/10/04 06:06:22;;;;;;;1.73;0.90;;;;;;;;;;5006932;28;20562;-80
2021/10/04 06:08:49;;;;;;;1.27;0.70;;;;;;;;;;5016545;28;20627;-78
2021/10/04 06:11:16;;;;;;;3.58;1.02;;;;;;;;;;5011686;28;20205;-79
2021/10/04 06:13:45;;;;;;;1.05;0.80;;;;;;;;;;4992525;28;20201;-78
2021/10/04 06:16:12;;;;;;;1.13;0.90;;;;;;;;;;5007231;28;20603;-79
2021/10/04 06:18:39;;;;;;;0.90;0.68;;;;;;;;;;5010737;28;20668;-79
2021/10/04 06:21:06;;;;;;;1.10;0.80;;;;;;;;;;4995580;28;20206;-78
2021/10/04 06:23:33;;;;;;;1.05;0.70;;;;;;;;;;4992310;28;20214;-80
2021/10/04 06:26:00;;;;;;;1.98;0.90;;;;;;;;;;5004401;28;20204;-79
2021/10/04 06:28:27;;;;;;;1.30;0.73;;;;;;;;;;5004957;28;20208;-79
2021/10/04 06:30:55;;;;;;;1.90;0.80;;;;;;;;;;5011884;28;20228;-79
2021/10/04 06:33:22;;;;;;;1.27;0.80;;;;;;;;;;5012020;28;20683;-80
2021/10/04 06:35:49;;;;;;;0.98;0.82;;;;;;;;;;5011276;28;20208;-80
2021/10/04 06:38:16;;;;;;;1.73;0.82;;;;;;;;;;5011783;28;20193;-79
2021/10/04 06:40:44;;;;;;;1.20;1.00;;;;;;;;;;5010594;28;20208;-79
2021/10/04 06:43:11;;;;;;;1.83;0.80;;;;;;;;;;5004634;28;20204;-78
2021/10/04 06:45:38;;;;;;;1.70;0.90;;;;;;;;;;5011678;28;20263;-80
2021/10/04 06:48:06;;;;;;;2.08;1.08;;;;;;;;;;5011616;28;20204;-80
2021/10/04 06:50:33;;;;;;;1.75;1.13;;;;;;;;;;5005829;28;20201;-78
2021/10/04 06:53:00;;;;;;;2.15;1.90;;;;;;;;;;5010113;28;20225;-79
2021/10/04 06:55:27;;;;;;;1.35;0.80;;;;;;;;;;5001765;28;20197;-78
2021/10/04 06:57:54;;;;;;;1.10;0.80;;;;;;;;;;5009184;28;20196;-79
2021/10/04 07:00:22;;;;;;;1.15;0.80;;;;;;;;;;5010811;28;20204;-79
2021/10/04 07:02:49;;;;;;;1.20;0.80;;;;;;;;;;5009409;28;20212;-78
2021/10/04 07:05:18;;;;;;;1.92;1.00;;;;;;;;;;5013834;28;20243;-79
2021/10/04 07:07:45;;;;;;;1.75;0.80;;;;;;;;;;5013757;28;20196;-79
2021/10/04 07:10:13;;;;;;;1.90;0.80;;;;;;;;;;5014480;28;20213;-78
2021/10/04 07:12:40;;;;;;;1.42;0.70;;;;;;;;;;5013427;28;20227;-79
2021/10/04 07:15:07;;;;;;;1.85;1.10;;;;;;;;;;5003780;28;20193;-80
2021/10/04 07:17:34;;;;;;;1.30;1.00;;;;;;;;;;5015360;28;20208;-78
2021/10/04 07:20:01;;;;;;;3.25;1.20;;;;;;;;;;5012351;28;20205;-80
2021/10/04 07:22:30;;;;;;;2.63;1.00;;;;;;;;;;5015272;28;20193;-79
2021/10/04 07:24:57;;;;;;;1.20;1.00;;;;;;;;;;5013973;28;20208;-77
2021/10/04 07:27:24;;;;;;;2.33;0.90;;;;;;;;;;5005498;28;20576;-76
2021/10/04 07:29:51;;;;;;;1.20;0.90;;;;;;;;;;5001254;28;20221;-76
2021/10/04 07:32:18;;;;;;;1.10;0.80;;;;;;;;;;5009206;28;20603;-77
2021/10/04 07:34:45;;;;;;;1.83;1.02;;;;;;;;;;5019492;28;20693;-78
2021/10/04 07:37:12;;;;;;;1.00;0.80;;;;;;;;;;5014433;28;20208;-79
2021/10/04 07:39:41;;;;;;;4.25;0.80;;;;;;;;;;5022082;28;20189;-76
2021/10/04 07:42:08;;;;;;;2.65;1.05;;;;;;;;;;5013196;28;20548;-77
2021/10/04 07:44:35;;;;;;;1.30;0.70;;;;;;;;;;5013551;28;20571;-76
2021/10/04 07:47:03;;;;;;;1.10;0.88;;;;;;;;;;5013917;28;20197;-77
2021/10/04 07:49:30;;;;;;;2.17;1.08;;;;;;;;;;5009656;28;20260;-76
2021/10/04 07:51:58;;;;;;;2.05;1.00;;;;;;;;;;5012062;28;20271;-76
2021/10/04 07:54:26;;;;;;;1.20;0.90;;;;;;;;;;5010046;28;20236;-77
2021/10/04 07:56:54;;;;;;;0.90;0.70;;;;;;;;;;5008401;28;20205;-76
2021/10/04 07:59:21;;;;;;;1.15;0.80;;;;;;;;;;5013494;28;20197;-76
2021/10/04 08:01:48;;;;;;;1.13;0.90;;;;;;;;;;5013602;28;20212;-77
2021/10/04 08:04:16;;;;;;;1.52;0.90;;;;;;;;;;5010648;28;20255;-76
2021/10/04 08:06:43;;;;;;;1.92;1.05;;;;;;;;;;5012353;28;20201;-76
2021/10/04 08:09:10;;;;;;;1.63;0.90;;;;;;;;;;5014227;28;20205;-76
2021/10/04 08:11:37;;;;;;;1.10;0.80;;;;;;;;;;5012552;28;20292;-76
2021/10/04 08:14:06;;;;;;;1.30;0.90;;;;;;;;;;5011895;28;20201;-77
2021/10/04 08:16:33;;;;;;;2.22;0.80;;;;;;;;;;5006482;28;20209;-78
2021/10/04 08:19:00;;;;;;;1.77;1.20;;;;;;;;;;5010982;28;20196;-76
2021/10/04 08:21:27;;;;;;;1.08;0.70;;;;;;;;;;5008498;28;20655;-77
2021/10/04 08:23:54;;;;;;;1.83;0.80;;;;;;;;;;5013093;28;20243;-76
2021/10/04 08:26:21;;;;;;;1.00;0.88;;;;;;;;;;5011574;28;20201;-76
2021/10/04 08:28:48;;;;;;;1.15;0.90;;;;;;;;;;5010164;28;20667;-79
2021/10/04 08:31:16;;;;;;;1.08;0.70;;;;;;;;;;5007811;28;20221;-76
2021/10/04 08:33:43;;;;;;;3.35;1.20;;;;;;;;;;5007026;28;20224;-78
2021/10/04 08:36:11;;;;;;;1.00;0.85;;;;;;;;;;5004214;28;20290;-76
2021/10/04 08:38:38;;;;;;;1.52;0.80;;;;;;;;;;5006863;28;20668;-76
2021/10/04 08:41:06;;;;;;;1.13;1.02;;;;;;;;;;5009212;28;20193;-76
2021/10/04 08:43:33;;;;;;;3.28;0.82;;;;;;;;;;5010422;28;20189;-76
2021/10/04 08:46:00;;;;;;;1.10;0.80;;;;;;;;;;5010657;28;20255;-76
2021/10/04 08:48:29;;;;;;;1.85;0.90;;;;;;;;;;5009083;28;20207;-78
2021/10/04 08:50:56;;;;;;;1.67;0.85;;;;;;;;;;5008563;28;20537;-80
2021/10/04 08:53:24;;;;;;;1.33;0.80;;;;;;;;;;5012745;28;20219;-76
2021/10/04 08:55:51;;;;;;;1.50;0.80;;;;;;;;;;5012048;28;20212;-76
2021/10/04 08:58:18;;;;;;;1.10;0.70;;;;;;;;;;5011017;28;20251;-76
2021/10/04 09:00:45;;;;;;;2.70;0.93;;;;;;;;;;5010309;28;20193;-76
2021/10/04 09:03:13;;;;;;;0.93;0.70;;;;;;;;;;5011591;28;20204;-76
2021/10/04 09:05:44;;;;;;;0.98;0.80;;;;;;;;;;5011995;28;20200;-76
2021/10/04 09:08:14;;;;;;;2.40;1.02;;;;;;;;;;5009576;28;20651;-77
2021/10/04 09:10:42;;;;;;;1.00;0.80;;;;;;;;;;5011472;28;20292;-77
2021/10/04 09:13:10;;;;;;;1.40;0.80;;;;;;;;;;5004474;28;20278;-76
2021/10/04 09:15:38;;;;;;;1.02;0.70;;;;;;;;;;5000368;28;20671;-76
2021/10/04 09:18:07;;;;;;;1.75;0.90;;;;;;;;;;5013019;28;20201;-78
2021/10/04 09:20:49;;;;;;;0.95;0.70;;;;;;;;;;5005335;28;20560;-76
2021/10/04 09:23:30;;;;;;;1.17;1.00;;;;;;;;;;5008755;28;20626;-77
2021/10/04 09:25:58;;;;;;;4.85;0.90;;;;;;;;;;5012791;28;20192;-76
2021/10/04 09:28:28;;;;;;;0.90;0.70;;;;;;;;;;4999555;28;20255;-77
2021/10/04 09:31:00;;;;;;;1.55;0.80;;;;;;;;;;5001223;28;20221;-77
2021/10/04 09:33:27;;;;;;;1.00;0.80;;;;;;;;;;5010294;28;20225;-76
2021/10/04 09:35:54;;;;;;;1.20;0.80;;;;;;;;;;5010870;28;20204;-76
2021/10/04 09:38:23;;;;;;;1.85;0.90;;;;;;;;;;5012005;28;20205;-77
2021/10/04 09:40:53;;;;;;;1.08;0.80;;;;;;;;;;5012334;28;20209;-76
2021/10/04 09:43:25;;;;;;;0.90;0.70;;;;;;;;;;5004852;28;20195;-76
2021/10/04 09:45:59;;;;;;;0.90;0.80;;;;;;;;;;5010396;28;20200;-76
2021/10/04 09:48:27;;;;;;;1.25;1.02;;;;;;;;;;5011616;28;20275;-76
2021/10/04 09:50:54;;;;;;;1.10;0.90;;;;;;;;;;5003805;28;20607;-77
2021/10/04 09:53:22;;;;;;;2.50;1.00;;;;;;;;;;5011528;28;20292;-76
2021/10/04 09:55:50;;;;;;;1.88;0.90;;;;;;;;;;5011582;28;20289;-76
2021/10/04 09:58:19;;;;;;;1.30;0.88;;;;;;;;;;4997644;28;20620;-75
2021/10/04 10:00:47;;;;;;;1.00;0.70;;;;;;;;;;5011557;28;20193;-77
2021/10/04 10:03:14;;;;;;;2.25;0.90;;;;;;;;;;5011510;28;20255;-78
2021/10/04 10:05:43;;;;;;;1.00;0.77;;;;;;;;;;5009144;28;20570;-78
2021/10/04 10:08:11;;;;;;;4.15;1.33;;;;;;;;;;5010571;28;20393;-77
2021/10/04 10:10:39;;;;;;;2.65;1.00;;;;;;;;;;4997830;28;20247;-77
2021/10/04 10:13:07;;;;;;;3.22;0.80;;;;;;;;;;5005657;28;20271;-76
2021/10/04 10:15:36;;;;;;;1.20;1.00;;;;;;;;;;5009726;28;20292;-76
2021/10/04 10:18:09;;;;;;;1.40;0.85;;;;;;;;;;5007030;28;20327;-76
2021/10/04 10:20:37;;;;;;;2.47;0.80;;;;;;;;;;5010918;28;20201;-76
2021/10/04 10:23:04;;;;;;;1.10;0.80;;;;;;;;;;5008988;28;20193;-76
2021/10/04 10:25:36;;;;;;;2.17;0.90;;;;;;;;;;5010503;28;20208;-76
2021/10/04 10:28:04;;;;;;;1.75;1.00;;;;;;;;;;5010709;28;20197;-76
2021/10/04 10:30:33;;;;;;;1.48;1.02;;;;;;;;;;5010312;28;20271;-76
2021/10/04 10:33:02;;;;;;;1.52;0.80;;;;;;;;;;5007663;28;20222;-76
2021/10/04 10:35:48;;;;;;;2.90;1.05;;;;;;;;;;5007484;28;20255;-77
2021/10/04 10:38:15;;;;;;;2.10;1.20;;;;;;;;;;5009875;28;20207;-76
2021/10/04 10:40:42;;;;;;;2.03;1.15;;;;;;;;;;5011274;28;20239;-75
2021/10/04 10:43:10;;;;;;;1.00;0.80;;;;;;;;;;5008413;28;20235;-76
2021/10/04 10:45:42;;;;;;;2.00;0.98;;;;;;;;;;5009882;28;20201;-77
2021/10/04 10:48:12;;;;;;;1.85;0.80;;;;;;;;;;5009693;28;20201;-78
2021/10/04 10:50:43;;;;;;;1.10;0.90;;;;;;;;;;5009423;28;20224;-78
2021/10/04 10:53:16;;;;;;;1.45;0.90;;;;;;;;;;5010756;28;20278;-76
2021/10/04 10:55:44;;;;;;;1.55;0.70;;;;;;;;;;5011054;28;20651;-78
2021/10/04 10:58:12;;;;;;;1.50;1.13;;;;;;;;;;4998559;28;20659;-76
2021/10/04 11:00:42;;;;;;;1.40;0.95;;;;;;;;;;5007527;28;20232;-76
2021/10/04 11:03:12;;;;;;;1.67;0.75;;;;;;;;;;5010107;28;20622;-76
2021/10/04 11:05:56;;;;;;;2.17;0.82;;;;;;;;;;4998740;28;20224;-77
2021/10/04 11:08:26;;;;;;;1.20;0.73;;;;;;;;;;5007095;28;20245;-76
2021/10/04 11:11:13;;;;;;;1.80;0.90;;;;;;;;;;5008023;28;20617;-76
2021/10/04 11:13:41;;;;;;;2.65;1.00;;;;;;;;;;5005935;28;20272;-76
2021/10/04 11:16:27;;;;;;;1.20;0.90;;;;;;;;;;5010422;28;20618;-77
2021/10/04 11:18:56;;;;;;;1.00;0.88;;;;;;;;;;5002698;28;20609;-76
2021/10/04 11:21:24;;;;;;;1.65;0.88;;;;;;;;;;5010034;28;21777;-76
2021/10/04 11:23:52;;;;;;;1.15;0.80;;;;;;;;;;5010909;28;20201;-76
2021/10/04 11:26:20;;;;;;;1.23;1.00;;;;;;;;;;5011267;28;20259;-76
2021/10/04 11:28:49;;;;;;;3.90;1.13;;;;;;;;;;4994276;28;20685;-77
2021/10/04 11:31:19;;;;;;;1.65;0.90;;;;;;;;;;5008543;28;20217;-76
2021/10/04 11:33:48;;;;;;;1.25;0.82;;;;;;;;;;5006514;28;20699;-76
2021/10/04 11:36:18;;;;;;;1.88;0.90;;;;;;;;;;5002813;28;20205;-76
2021/10/04 11:38:46;;;;;;;1.33;1.00;;;;;;;;;;5010754;28;20208;-78
2021/10/04 11:41:14;;;;;;;2.65;0.90;;;;;;;;;;5010688;28;20678;-76
2021/10/04 11:43:42;;;;;;;1.52;0.80;;;;;;;;;;5002109;28;20197;-77
2021/10/04 11:46:19;;;;;;;1.50;0.95;;;;;;;;;;5010581;28;20201;-76
2021/10/04 11:48:46;;;;;;;2.45;1.00;;;;;;;;;;5007800;28;20251;-76
2021/10/04 11:51:25;;;;;;;2.95;1.00;;;;;;;;;;5011080;28;20197;-77
2021/10/04 11:53:52;;;;;;;1.90;1.10;;;;;;;;;;5013431;28;20459;-78
2021/10/04 11:56:19;;;;;;;1.70;0.80;;;;;;;;;;5012508;28;20623;-78
2021/10/04 11:58:49;;;;;;;2.50;0.90;;;;;;;;;;5012238;28;21020;-77
2021/10/04 12:01:27;;;;;;;2.40;1.30;;;;;;;;;;5012324;28;20494;-78
2021/10/04 12:03:59;;;;;;;3.47;1.33;;;;;;;;;;5012189;28;20216;-77
2021/10/04 12:06:30;;;;;;;3.72;0.80;;;;;;;;;;5008883;28;20702;-77
2021/10/04 12:08:57;;;;;;;3.30;0.90;;;;;;;;;;5011883;28;20488;-78
2021/10/04 12:11:25;;;;;;;1.42;0.80;;;;;;;;;;5012906;28;20204;-78
2021/10/04 12:13:52;;;;;;;1.10;0.82;;;;;;;;;;5011079;28;20220;-79
2021/10/04 12:16:20;;;;;;;1.45;0.80;;;;;;;;;;5011624;28;20205;-78
2021/10/04 12:18:48;;;;;;;2.97;1.15;;;;;;;;;;5013897;28;20200;-79
2021/10/04 12:21:16;;;;;;;1.10;1.00;;;;;;;;;;4998616;28;20251;-78
2021/10/04 12:23:45;;;;;;;1.30;1.13;;;;;;;;;;5006582;28;20287;-77
2021/10/04 12:26:13;;;;;;;1.85;0.90;;;;;;;;;;5011378;28;20197;-79
2021/10/04 12:28:47;;;;;;;4.07;0.85;;;;;;;;;;5012899;28;20205;-77
2021/10/04 12:31:29;;;;;;;4.00;0.95;;;;;;;;;;5010364;28;20212;-78
2021/10/04 12:33:56;;;;;;;1.98;0.90;;;;;;;;;;5013107;28;20216;-78
2021/10/04 12:36:24;;;;;;;3.22;1.40;;;;;;;;;;5012821;28;20618;-78
2021/10/04 12:38:53;;;;;;;1.20;0.80;;;;;;;;;;5013531;28;20217;-77
2021/10/04 12:41:21;;;;;;;1.40;0.80;;;;;;;;;;5012642;28;20212;-77
2021/10/04 12:43:48;;;;;;;2.97;1.08;;;;;;;;;;5013114;28;20215;-78
2021/10/04 12:46:18;;;;;;;1.60;0.90;;;;;;;;;;5010522;28;20211;-77
2021/10/04 12:48:47;;;;;;;2.10;1.00;;;;;;;;;;5011595;28;20671;-77
2021/10/04 12:51:15;;;;;;;1.13;0.80;;;;;;;;;;5017211;28;20192;-78
2021/10/04 12:53:50;;;;;;;4.95;1.15;;;;;;;;;;5011788;28;20262;-77
2021/10/04 12:56:22;;;;;;;1.48;0.93;;;;;;;;;;5010221;28;20262;-78
2021/10/04 12:58:59;;;;;;;2.60;1.30;;;;;;;;;;5002146;28;20719;-78
2021/10/04 13:01:26;;;;;;;1.58;0.80;;;;;;;;;;5005897;28;20201;-77
2021/10/04 13:03:55;;;;;;;1.50;1.00;;;;;;;;;;5012105;28;20537;-79
2021/10/04 13:06:24;;;;;;;1.05;0.80;;;;;;;;;;5002614;28;20229;-77
2021/10/04 13:08:51;;;;;;;1.90;0.93;;;;;;;;;;5010817;28;20738;-78
2021/10/04 13:11:19;;;;;;;2.28;1.00;;;;;;;;;;5007248;28;20197;-78
2021/10/04 13:13:47;;;;;;;1.20;0.80;;;;;;;;;;5009567;28;20343;-78
2021/10/04 13:16:15;;;;;;;2.28;0.90;;;;;;;;;;5006512;28;20652;-76
2021/10/04 13:18:42;;;;;;;3.10;1.05;;;;;;;;;;5012072;28;20324;-78
2021/10/04 13:21:09;;;;;;;1.30;0.80;;;;;;;;;;5014452;28;20621;-78
2021/10/04 13:23:37;;;;;;;1.27;1.05;;;;;;;;;;5011951;28;20742;-78
2021/10/04 13:26:04;;;;;;;1.95;1.10;;;;;;;;;;5013232;28;20201;-77
2021/10/04 13:28:31;;;;;;;1.08;0.80;;;;;;;;;;5000993;28;20201;-77
2021/10/04 13:31:00;;;;;;;2.17;1.00;;;;;;;;;;5012655;28;20684;-78
2021/10/04 13:33:27;;;;;;;1.42;1.00;;;;;;;;;;5010841;28;20216;-78
2021/10/04 13:35:54;;;;;;;1.40;0.90;;;;;;;;;;5022102;28;20208;-80
2021/10/04 13:38:21;;;;;;;3.10;1.20;;;;;;;;;;5010545;28;20198;-77
2021/10/04 13:40:48;;;;;;;1.70;0.90;;;;;;;;;;5005946;28;20193;-78
2021/10/04 13:43:15;;;;;;;1.63;1.02;;;;;;;;;;5014030;28;20192;-75
2021/10/04 13:45:42;;;;;;;2.13;0.80;;;;;;;;;;5012771;28;20205;-77
2021/10/04 13:48:11;;;;;;;3.65;1.20;;;;;;;;;;5011470;28;20189;-76
2021/10/04 13:50:38;;;;;;;1.52;0.90;;;;;;;;;;5007405;28;20643;-79
2021/10/04 13:53:05;;;;;;;1.38;1.10;;;;;;;;;;5007694;28;20618;-76
2021/10/04 13:55:33;;;;;;;2.67;1.00;;;;;;;;;;5011719;28;20217;-77
2021/10/04 13:58:00;;;;;;;3.28;1.35;;;;;;;;;;5010409;28;20209;-76
2021/10/04 14:00:28;;;;;;;1.33;0.93;;;;;;;;;;5006929;28;20204;-76
2021/10/04 14:02:55;;;;;;;2.97;1.08;;;;;;;;;;5026070;28;20574;-76
2021/10/04 14:05:24;;;;;;;2.08;1.25;;;;;;;;;;5027799;28;20247;-76
2021/10/04 14:07:51;;;;;;;1.77;0.93;;;;;;;;;;5001873;28;20232;-77
2021/10/04 14:10:18;;;;;;;1.42;0.90;;;;;;;;;;5011471;28;20197;-77
2021/10/04 14:12:45;;;;;;;2.40;0.95;;;;;;;;;;5010854;28;20196;-76
2021/10/04 14:15:13;;;;;;;5.43;1.10;;;;;;;;;;5009333;28;20598;-76
2021/10/04 14:17:40;;;;;;;1.20;0.90;;;;;;;;;;5011661;28;20250;-78
2021/10/04 14:20:09;;;;;;;0.90;0.80;;;;;;;;;;5010492;28;20205;-77
2021/10/04 14:22:37;;;;;;;1.77;1.00;;;;;;;;;;5006178;28;20204;-78
2021/10/04 14:25:04;;;;;;;1.83;0.88;;;;;;;;;;5002907;28;20205;-77
2021/10/04 14:27:31;;;;;;;1.52;1.02;;;;;;;;;;4999568;28;20571;-77
2021/10/04 14:29:58;;;;;;;1.20;1.00;;;;;;;;;;5006333;28;20694;-77
2021/10/04 14:32:25;;;;;;;2.17;1.25;;;;;;;;;;5009652;28;20324;-78
2021/10/04 14:34:52;;;;;;;0.90;0.80;;;;;;;;;;5011008;28;20217;-77
2021/10/04 14:37:20;;;;;;;1.38;1.00;;;;;;;;;;5011276;28;20197;-76
2021/10/04 14:39:48;;;;;;;2.72;1.15;;;;;;;;;;5010572;28;20196;-78
2021/10/04 14:42:15;;;;;;;1.10;0.80;;;;;;;;;;5010959;28;20246;-77
2021/10/04 14:44:42;;;;;;;1.90;0.80;;;;;;;;;;5011635;28;20197;-79
2021/10/04 14:47:10;;;;;;;1.63;1.02;;;;;;;;;;5011315;28;20579;-79